MUCU/SCU METAR and TAF weather

Enter ICAO airport designator
Station Type Date Time Source
MUCU METAR 2019/09/21 20:53 UTC NOAA

MUCU 212053Z VRB02KT 8000 -RA SCT020CB BKN060 25/24 Q1011


Station Type Date Time Source
MUCU Decoded METAR 2019/09/21 20:53 UTC NOAA

Santiago De Cuba, Oriente, Cuba (MUCU) 19-58N 075-51W 55M
Sep 21, 2019 - 04:53 PM EDT / 2019.09.21 2053 UTC
Wind: Variable at 2 MPH (2 KT):0
Visibility: 4 mile(s):0
Sky conditions: mostly cloudy
Weather: light rain; Cumulonimbus clouds observed
Temperature: 77 F (25 C)
Dew Point: 75 F (24 C)
Relative Humidity: 94%
Pressure (altimeter): 29.85 in. Hg (1011 hPa)
ob: MUCU 212053Z VRB02KT 8000 -RA SCT020CB BKN060 25/24 Q1011
cycle: 21

Station Type Date Time Source
MUCU TAF 2019/09/21 18:03 UTC NOAA

TAF MUCU 211700Z 2118/2218 16007KT 9000 SCT020 SCT060
TEMPO 2118/2201 VRB10KT 5000 SHRA SCT018CB BKN020
BECMG 2202/2204 VRB03KT
BECMG 2210/2212 17008KT

Example: see airport list